Terminal Aerodrome Forecast
Issued by NWS

Home | Current Version | Previous Version | Text Only | Print | Product List | Glossary On
Versions: 1 2 3 4 5 6 7 8 9 10 11 12 13 14 15 16 17 18 19 20 21 22 23 24 25 26
000
FTUS46 KMTR 250528
TAFSFO
TAF
KSFO 250528Z 2506/2612 28017KT P6SM FEW003 BKN006
      TEMPO 2506/2507 BKN006
     FM250700 28012KT P6SM OVC006
     FM251500 26009KT P6SM BKN008
     FM251700 29011KT P6SM FEW010
     FM252000 28018KT P6SM FEW012
     FM260400 28013KT P6SM FEW012
     FM260600 27011KT P6SM BKN007
     FM260900 27010KT P6SM OVC006=

USA.gov is the U.S. government's official web portal to all federal, state and local government web resources and services.